createdAt,value
2022-08-04T00:01:46.357Z,21.39
2022-08-04T00:04:53.524Z,21.40
2022-08-04T00:07:48.146Z,21.45
2022-08-04T00:10:34.972Z,21.58
2022-08-04T00:13:25.150Z,21.59
2022-08-04T00:16:11.111Z,21.61
2022-08-04T00:19:01.597Z,21.48
2022-08-04T00:21:53.272Z,21.50
2022-08-04T00:24:39.242Z,21.39
2022-08-04T00:27:24.681Z,21.48
2022-08-04T00:30:10.854Z,21.32
2022-08-04T00:32:57.778Z,21.19
2022-08-04T00:35:44.906Z,21.07
2022-08-04T00:38:31.174Z,20.99
2022-08-04T00:41:25.884Z,20.97
2022-08-04T00:44:23.770Z,20.89
2022-08-04T00:47:40.910Z,20.85
2022-08-04T00:51:03.862Z,20.77
2022-08-04T00:54:22.080Z,20.94
2022-08-04T00:57:34.498Z,20.68
2022-08-04T01:00:20.903Z,20.49
2022-08-04T01:03:21.356Z,20.57
2022-08-04T01:06:16.998Z,20.59
2022-08-04T01:09:02.468Z,20.57
2022-08-04T01:11:57.266Z,20.60
2022-08-04T01:15:05.578Z,20.65
2022-08-04T01:18:06.422Z,20.62
2022-08-04T01:21:09.820Z,20.65
2022-08-04T01:24:29.963Z,20.58
2022-08-04T01:28:06.584Z,20.55
2022-08-04T01:30:58.136Z,20.34
2022-08-04T01:34:03.069Z,20.60
2022-08-04T01:37:00.563Z,20.50
2022-08-04T01:40:02.463Z,20.35
2022-08-04T01:42:52.295Z,20.24
2022-08-04T01:45:38.599Z,20.29
2022-08-04T01:48:25.727Z,20.22
2022-08-04T01:51:11.725Z,20.28
2022-08-04T01:53:58.430Z,19.94
2022-08-04T01:56:45.737Z,20.10
2022-08-04T01:59:34.122Z,20.18
2022-08-04T02:02:24.271Z,20.20
2022-08-04T02:05:11.872Z,20.17
2022-08-04T02:08:16.154Z,19.98
2022-08-04T02:11:07.682Z,19.83
2022-08-04T02:14:40.412Z,19.77
2022-08-04T02:17:33.178Z,19.75
2022-08-04T02:20:29.402Z,19.72
2022-08-04T02:23:24.042Z,19.71
2022-08-04T02:26:22.864Z,19.95
2022-08-04T02:29:27.314Z,20.02
2022-08-04T02:32:22.063Z,19.81
2022-08-04T02:35:13.111Z,19.82
2022-08-04T02:38:11.844Z,19.70
2022-08-04T02:41:00.483Z,19.62
2022-08-04T02:43:51.110Z,19.66
2022-08-04T02:46:39.341Z,19.59
2022-08-04T02:49:26.371Z,19.51
2022-08-04T02:52:20.439Z,19.50
2022-08-04T02:55:06.956Z,19.59
2022-08-04T02:57:52.661Z,19.62
2022-08-04T03:00:38.782Z,19.69
2022-08-04T03:03:48.488Z,19.56
2022-08-04T03:07:08.652Z,19.35
2022-08-04T03:10:22.880Z,19.30
2022-08-04T03:13:42.768Z,19.17
2022-08-04T03:17:07.886Z,19.29
2022-08-04T03:20:15.948Z,19.31
2022-08-04T03:23:31.832Z,19.31
2022-08-04T03:26:43.682Z,19.32
2022-08-04T03:29:57.001Z,19.35
2022-08-04T03:32:57.651Z,19.25
2022-08-04T03:36:08.811Z,19.15
2022-08-04T03:39:19.136Z,19.09
2022-08-04T03:42:20.845Z,19.18
2022-08-04T03:45:44.515Z,19.26
2022-08-04T03:48:54.347Z,19.25
2022-08-04T03:52:28.694Z,19.31
2022-08-04T03:55:38.640Z,19.32
2022-08-04T03:58:43.162Z,19.24
2022-08-04T04:02:02.719Z,19.29
2022-08-04T04:05:01.663Z,19.33
2022-08-04T04:08:25.312Z,19.35
2022-08-04T04:11:27.000Z,19.44
2022-08-04T04:14:31.087Z,19.48
2022-08-04T04:17:35.409Z,19.59
2022-08-04T04:20:49.999Z,19.73
2022-08-04T04:24:00.219Z,19.87
2022-08-04T04:27:09.931Z,19.95
2022-08-04T04:30:07.997Z,20.16
2022-08-04T04:33:05.390Z,20.17
2022-08-04T04:36:24.173Z,20.33
2022-08-04T04:39:46.926Z,20.39
2022-08-04T04:42:50.627Z,20.50
2022-08-04T04:46:03.549Z,20.57
2022-08-04T04:49:01.056Z,20.76
2022-08-04T04:51:56.382Z,20.77
2022-08-04T04:55:00.144Z,20.72
2022-08-04T04:57:54.748Z,20.89
2022-08-04T05:00:49.638Z,21.12
2022-08-04T05:03:59.805Z,21.10
2022-08-04T05:07:02.988Z,21.23
2022-08-04T05:10:10.936Z,21.48
2022-08-04T05:14:36.438Z,21.73
2022-08-04T05:16:33.285Z,21.72
2022-08-04T05:19:40.574Z,21.84
2022-08-04T05:22:37.876Z,21.71
2022-08-04T05:25:28.250Z,21.91
2022-08-04T05:28:19.552Z,21.90
2022-08-04T05:31:32.265Z,22.03
2022-08-04T05:34:24.088Z,22.30
2022-08-04T05:37:14.960Z,22.44
2022-08-04T05:40:04.614Z,22.65
2022-08-04T05:42:51.652Z,22.62
2022-08-04T05:45:39.443Z,22.68
2022-08-04T05:48:26.867Z,22.79
2022-08-04T05:51:13.971Z,22.86
2022-08-04T05:54:01.521Z,23.00
2022-08-04T05:56:47.655Z,23.24
2022-08-04T05:59:34.173Z,23.42
2022-08-04T06:02:20.986Z,23.82
2022-08-04T06:05:07.752Z,24.03
2022-08-04T06:08:12.583Z,24.17
2022-08-04T06:11:04.778Z,24.35
2022-08-04T06:13:58.445Z,24.34
2022-08-04T06:16:50.803Z,24.52
2022-08-04T06:20:00.401Z,24.96
2022-08-04T06:22:50.657Z,25.60
2022-08-04T06:25:44.915Z,26.08
2022-08-04T06:28:31.331Z,26.36
2022-08-04T06:32:31.762Z,26.57
2022-08-04T06:34:48.128Z,26.96
2022-08-04T06:37:41.822Z,26.94
2022-08-04T06:40:33.791Z,26.85
2022-08-04T06:43:21.669Z,27.35
2022-08-04T06:46:09.226Z,27.47
2022-08-04T06:48:55.511Z,26.93
2022-08-04T06:51:48.881Z,26.63
2022-08-04T06:54:35.491Z,26.80
2022-08-04T06:57:23.448Z,26.94
2022-08-04T07:00:12.288Z,26.87
2022-08-04T07:02:58.819Z,27.10
2022-08-04T07:05:46.282Z,27.26
2022-08-04T07:08:32.115Z,27.19
2022-08-04T07:11:19.330Z,27.36
2022-08-04T07:14:05.426Z,27.80
2022-08-04T07:16:51.793Z,28.01
2022-08-04T07:19:38.284Z,28.23
2022-08-04T07:22:26.516Z,28.59
2022-08-04T07:25:13.152Z,28.62
2022-08-04T07:27:58.789Z,28.52
2022-08-04T07:30:45.381Z,28.64
2022-08-04T07:33:31.596Z,28.75
2022-08-04T07:36:17.190Z,28.96
2022-08-04T07:39:02.821Z,29.57
2022-08-04T07:41:49.026Z,29.75
2022-08-04T07:44:35.726Z,30.09
2022-08-04T07:47:25.275Z,30.24
2022-08-04T07:50:12.398Z,30.12
2022-08-04T07:53:22.377Z,30.02
2022-08-04T07:56:04.051Z,30.20
2022-08-04T07:58:49.899Z,29.98
2022-08-04T08:01:37.392Z,30.36
2022-08-04T08:04:23.192Z,30.78
2022-08-04T08:07:08.782Z,31.17
2022-08-04T08:09:54.068Z,31.87
2022-08-04T08:12:51.464Z,32.01
2022-08-04T08:15:38.597Z,32.12
2022-08-04T08:18:24.864Z,32.85
2022-08-04T08:21:10.287Z,32.99
2022-08-04T08:23:56.347Z,33.66
2022-08-04T08:26:42.233Z,34.02
2022-08-04T08:29:29.251Z,33.62
2022-08-04T08:32:15.335Z,34.00
2022-08-04T08:35:01.426Z,34.51
2022-08-04T08:37:58.412Z,34.53
2022-08-04T08:41:01.953Z,34.47
2022-08-04T08:44:07.705Z,34.52
2022-08-04T08:47:21.013Z,35.05
2022-08-04T08:50:30.945Z,35.74
2022-08-04T08:53:38.409Z,37.25
2022-08-04T08:56:31.884Z,39.03
2022-08-04T08:59:21.132Z,39.08
2022-08-04T09:02:23.369Z,38.91
2022-08-04T09:05:40.012Z,39.09
2022-08-04T09:08:28.013Z,41.09
2022-08-04T09:11:16.732Z,39.40
2022-08-04T09:14:16.217Z,38.78
2022-08-04T09:17:06.517Z,38.46
2022-08-04T09:20:08.889Z,39.16
2022-08-04T09:23:05.983Z,39.04
2022-08-04T09:26:09.017Z,40.86
2022-08-04T09:29:19.649Z,41.21
2022-08-04T09:32:17.139Z,41.87
2022-08-04T09:35:40.573Z,42.05
2022-08-04T09:38:47.958Z,41.23
2022-08-04T09:41:49.305Z,42.10
2022-08-04T09:44:56.379Z,43.70
2022-08-04T09:47:53.706Z,44.40
2022-08-04T09:50:50.100Z,42.85
2022-08-04T09:53:55.216Z,42.91
2022-08-04T09:57:07.755Z,43.61
2022-08-04T09:59:55.832Z,45.23
2022-08-04T10:02:46.958Z,46.65
2022-08-04T10:05:56.429Z,46.28
2022-08-04T10:09:00.019Z,45.76
2022-08-04T10:11:57.142Z,45.57
2022-08-04T10:14:45.214Z,44.67
2022-08-04T10:17:43.616Z,46.15
2022-08-04T10:20:56.736Z,46.21
2022-08-04T10:24:00.769Z,46.41
2022-08-04T10:26:58.079Z,47.27
2022-08-04T10:29:46.711Z,47.80
2022-08-04T10:32:39.975Z,48.35
2022-08-04T10:35:32.841Z,48.86
2022-08-04T10:38:29.391Z,47.48
2022-08-04T10:41:42.513Z,47.08
2022-08-04T10:44:46.291Z,48.22
2022-08-04T10:47:43.670Z,48.21
2022-08-04T10:50:29.678Z,46.56
2022-08-04T10:53:20.745Z,48.75
2022-08-04T10:56:15.185Z,45.05
2022-08-04T10:59:08.766Z,42.83
2022-08-04T11:02:03.918Z,41.64
2022-08-04T11:04:59.501Z,40.53
2022-08-04T11:07:47.338Z,40.66
2022-08-04T11:10:42.907Z,40.51
2022-08-04T11:13:46.783Z,42.81
2022-08-04T11:16:44.316Z,41.84
2022-08-04T11:19:52.836Z,41.64
2022-08-04T11:22:47.989Z,41.51
2022-08-04T11:25:52.020Z,42.20
2022-08-04T11:29:03.875Z,43.57
2022-08-04T11:31:52.118Z,44.01
2022-08-04T11:34:44.170Z,44.20
2022-08-04T11:38:02.464Z,46.46
2022-08-04T11:41:02.340Z,48.85
2022-08-04T11:44:03.895Z,47.72
2022-08-04T11:46:55.319Z,46.21
2022-08-04T11:49:56.780Z,48.69
2022-08-04T11:52:45.498Z,49.74
2022-08-04T11:55:32.454Z,49.29
2022-08-04T11:58:38.357Z,46.19
2022-08-04T12:01:58.444Z,42.97
2022-08-04T12:04:59.022Z,43.78
2022-08-04T12:08:23.318Z,44.41
2022-08-04T12:11:45.827Z,47.03
2022-08-04T12:14:38.458Z,44.77
2022-08-04T12:17:59.321Z,42.79
2022-08-04T12:20:58.907Z,41.04
2022-08-04T12:23:47.184Z,40.80
2022-08-04T12:26:44.751Z,44.57
2022-08-04T12:29:34.665Z,48.46
2022-08-04T12:32:32.406Z,50.77
2022-08-04T12:35:27.824Z,49.95
2022-08-04T12:38:14.358Z,50.57
2022-08-04T12:41:03.419Z,46.84
2022-08-04T12:43:50.263Z,48.01
2022-08-04T12:46:37.372Z,47.26
2022-08-04T12:49:24.130Z,48.03
2022-08-04T12:52:11.357Z,50.24
2022-08-04T12:54:58.565Z,50.65
2022-08-04T12:57:45.814Z,49.95
2022-08-04T13:00:40.572Z,49.85
2022-08-04T13:03:30.979Z,50.03
2022-08-04T13:06:23.369Z,50.26
2022-08-04T13:09:18.896Z,51.63
2022-08-04T13:12:06.161Z,49.64
2022-08-04T13:14:58.774Z,45.50
2022-08-04T13:18:04.525Z,44.95
2022-08-04T13:20:50.328Z,48.48
2022-08-04T13:24:09.772Z,51.87
2022-08-04T13:26:54.497Z,49.89
2022-08-04T13:29:59.371Z,51.71
2022-08-04T13:32:55.299Z,47.01
2022-08-04T13:35:56.173Z,43.48
2022-08-04T13:39:07.342Z,42.01
2022-08-04T13:41:58.724Z,42.14
2022-08-04T13:44:49.570Z,46.99
2022-08-04T13:47:39.079Z,50.65
2022-08-04T13:50:28.583Z,50.12
2022-08-04T13:53:18.384Z,47.81
2022-08-04T13:56:10.350Z,49.96
2022-08-04T13:58:58.119Z,50.77
2022-08-04T14:01:59.965Z,51.17
2022-08-04T14:04:54.276Z,50.66
2022-08-04T14:07:49.021Z,49.14
2022-08-04T14:10:35.924Z,49.30
2022-08-04T14:13:41.524Z,45.25
2022-08-04T14:16:27.701Z,43.81
2022-08-04T14:19:13.453Z,47.63
2022-08-04T14:21:59.435Z,49.41
2022-08-04T14:24:58.177Z,46.04
2022-08-04T14:27:49.369Z,42.98
2022-08-04T14:30:37.238Z,41.31
2022-08-04T14:34:02.119Z,39.97
2022-08-04T14:36:49.653Z,39.11
2022-08-04T14:40:19.143Z,38.28
2022-08-04T14:42:59.673Z,38.53
2022-08-04T14:45:54.929Z,40.19
2022-08-04T14:49:01.473Z,40.50
2022-08-04T14:52:01.599Z,40.11
2022-08-04T14:54:47.085Z,39.94
2022-08-04T14:58:36.871Z,39.18
2022-08-04T15:00:42.250Z,38.74
2022-08-04T15:03:31.451Z,38.62
2022-08-04T15:06:21.591Z,38.32
2022-08-04T15:09:10.625Z,38.12
2022-08-04T15:11:56.067Z,38.91
2022-08-04T15:14:43.062Z,38.95
2022-08-04T15:17:29.906Z,40.01
2022-08-04T15:20:17.429Z,42.48
2022-08-04T15:23:08.595Z,44.28
2022-08-04T15:26:00.301Z,45.78
2022-08-04T15:28:53.040Z,42.76
2022-08-04T15:32:06.046Z,41.68
2022-08-04T15:34:48.714Z,39.32
2022-08-04T15:37:57.867Z,38.45
2022-08-04T15:40:55.442Z,37.77
2022-08-04T15:43:58.039Z,37.33
2022-08-04T15:46:46.589Z,36.88
2022-08-04T15:49:33.589Z,36.35
2022-08-04T15:52:19.196Z,36.14
2022-08-04T15:55:43.046Z,35.73
2022-08-04T15:58:49.113Z,35.33
2022-08-04T16:01:34.874Z,35.06
2022-08-04T16:04:23.105Z,34.69
2022-08-04T16:07:08.485Z,34.39
2022-08-04T16:09:54.052Z,34.06
2022-08-04T16:12:56.016Z,33.45
2022-08-04T16:15:47.638Z,32.73
2022-08-04T16:18:32.969Z,32.34
2022-08-04T16:21:21.605Z,31.88
2022-08-04T16:24:14.689Z,31.42
2022-08-04T16:27:01.221Z,30.70
2022-08-04T16:29:47.916Z,30.34
2022-08-04T16:32:41.921Z,30.31
2022-08-04T16:35:28.612Z,29.64
2022-08-04T16:38:15.470Z,29.74
2022-08-04T16:41:02.232Z,29.37
2022-08-04T16:43:47.619Z,29.04
2022-08-04T16:47:01.432Z,28.99
2022-08-04T16:50:01.782Z,28.46
2022-08-04T16:52:49.762Z,28.26
2022-08-04T16:55:35.528Z,28.21
2022-08-04T16:58:32.544Z,28.33
2022-08-04T17:01:32.252Z,28.32
2022-08-04T17:04:34.020Z,28.32
2022-08-04T17:07:19.508Z,28.53
2022-08-04T17:10:05.198Z,28.41
2022-08-04T17:12:59.508Z,28.13
2022-08-04T17:16:02.539Z,27.92
2022-08-04T17:18:50.767Z,27.86
2022-08-04T17:21:37.930Z,27.60
2022-08-04T17:24:23.548Z,27.53
2022-08-04T17:28:20.581Z,26.96
2022-08-04T17:30:25.683Z,26.93
2022-08-04T17:33:15.142Z,26.86
2022-08-04T17:36:03.066Z,26.82
2022-08-04T17:38:59.158Z,26.74
2022-08-04T17:41:48.750Z,26.84
2022-08-04T17:44:38.884Z,26.94
2022-08-04T17:47:24.719Z,26.97
2022-08-04T17:50:11.487Z,26.81
2022-08-04T17:53:02.056Z,26.93
2022-08-04T17:55:57.732Z,26.84
2022-08-04T17:58:43.431Z,26.92
2022-08-04T18:01:52.570Z,27.09
2022-08-04T18:05:05.859Z,27.10
2022-08-04T18:08:40.477Z,26.96
2022-08-04T18:11:01.361Z,26.79
2022-08-04T18:13:53.597Z,26.79
2022-08-04T18:16:46.044Z,26.37
2022-08-04T18:19:31.818Z,26.76
2022-08-04T18:22:27.933Z,26.57
2022-08-04T18:25:16.707Z,26.44
2022-08-04T18:28:09.650Z,26.41
2022-08-04T18:31:00.141Z,26.53
2022-08-04T18:36:55.506Z,26.34
2022-08-04T18:40:09.555Z,26.30
2022-08-04T18:42:50.259Z,26.23
2022-08-04T18:45:35.767Z,26.09
2022-08-04T18:48:21.318Z,26.13
2022-08-04T18:51:24.962Z,26.04
2022-08-04T18:54:16.155Z,25.98
2022-08-04T18:57:24.348Z,25.82
2022-08-04T19:00:08.269Z,25.70
2022-08-04T19:02:53.645Z,25.63
2022-08-04T19:08:44.973Z,25.37
2022-08-04T19:11:52.754Z,25.34
2022-08-04T19:14:39.119Z,25.37
2022-08-04T19:17:24.717Z,25.16
2022-08-04T19:20:30.782Z,25.06
2022-08-04T19:24:27.131Z,25.19
2022-08-04T19:26:28.211Z,25.25
2022-08-04T19:29:14.892Z,25.12
2022-08-04T19:32:00.711Z,24.82
2022-08-04T19:34:47.641Z,24.71
2022-08-04T19:37:57.591Z,24.71
2022-08-04T19:40:40.247Z,24.88
2022-08-04T19:43:35.961Z,24.80
2022-08-04T19:46:24.810Z,24.79
2022-08-04T19:50:03.279Z,24.59
2022-08-04T19:52:34.165Z,24.43
2022-08-04T19:55:37.133Z,24.37
2022-08-04T19:58:26.184Z,24.52
2022-08-04T20:01:31.571Z,24.49
2022-08-04T20:04:18.448Z,24.37
2022-08-04T20:07:03.922Z,24.46
2022-08-04T20:09:53.642Z,24.45
2022-08-04T20:12:42.006Z,24.31
2022-08-04T20:15:27.814Z,24.36
2022-08-04T20:18:35.473Z,24.41
2022-08-04T20:24:38.614Z,24.33
2022-08-04T20:27:51.505Z,24.32
2022-08-04T20:30:35.589Z,24.06
2022-08-04T20:33:21.543Z,23.98
2022-08-04T20:36:08.941Z,24.06
2022-08-04T20:38:55.507Z,23.81
2022-08-04T20:41:41.190Z,23.89
2022-08-04T20:44:30.438Z,23.72
2022-08-04T20:47:16.143Z,23.76
2022-08-04T20:50:02.398Z,23.86
2022-08-04T20:52:48.119Z,24.00
2022-08-04T20:55:33.498Z,23.98
2022-08-04T20:58:39.111Z,23.78
2022-08-04T21:01:29.938Z,23.64
2022-08-04T21:04:31.274Z,23.78
2022-08-04T21:07:20.425Z,23.80
2022-08-04T21:10:06.302Z,23.54
2022-08-04T21:12:52.005Z,23.62
2022-08-04T21:15:58.283Z,23.60
2022-08-04T21:18:42.951Z,23.57
2022-08-04T21:21:35.433Z,23.56
2022-08-04T21:24:25.965Z,23.42
2022-08-04T21:27:12.282Z,23.57
2022-08-04T21:29:57.938Z,23.40
2022-08-04T21:32:45.389Z,23.42
2022-08-04T21:35:37.415Z,23.35
2022-08-04T21:38:25.166Z,23.30
2022-08-04T21:41:13.946Z,23.30
2022-08-04T21:44:09.928Z,23.44
2022-08-04T21:46:56.184Z,23.50
2022-08-04T21:49:55.954Z,23.40
2022-08-04T21:52:42.874Z,23.32
2022-08-04T21:58:36.874Z,23.26
2022-08-04T22:01:52.223Z,23.24
2022-08-04T22:04:29.209Z,23.09
2022-08-04T22:07:16.366Z,23.09
2022-08-04T22:10:04.126Z,23.13
2022-08-04T22:12:52.010Z,23.07
2022-08-04T22:16:05.124Z,23.19
2022-08-04T22:18:42.900Z,23.13
2022-08-04T22:21:30.737Z,23.16
2022-08-04T22:24:16.326Z,23.04
2022-08-04T22:27:01.974Z,22.93
2022-08-04T22:29:55.871Z,22.74
2022-08-04T22:32:42.186Z,22.78
2022-08-04T22:35:36.288Z,22.63
2022-08-04T22:38:49.825Z,22.60
2022-08-04T22:42:02.970Z,22.59
2022-08-04T22:44:44.581Z,22.31
2022-08-04T22:47:30.762Z,22.33
2022-08-04T22:50:27.477Z,22.18
2022-08-04T22:53:18.026Z,22.06
2022-08-04T22:56:10.649Z,22.13
2022-08-04T22:58:56.277Z,22.12
2022-08-04T23:02:00.467Z,22.07
2022-08-04T23:04:49.981Z,21.81
2022-08-04T23:07:49.414Z,21.79
2022-08-04T23:10:37.057Z,21.90
2022-08-04T23:13:27.077Z,21.91
2022-08-04T23:16:12.510Z,21.77
2022-08-04T23:18:57.833Z,21.79
2022-08-04T23:21:47.667Z,21.66
2022-08-04T23:24:46.714Z,21.54
2022-08-04T23:27:39.028Z,21.43
2022-08-04T23:30:30.403Z,21.27
2022-08-04T23:33:16.086Z,21.21
2022-08-04T23:36:01.660Z,21.35
2022-08-04T23:38:47.320Z,21.44
2022-08-04T23:41:54.790Z,21.33
2022-08-04T23:44:39.918Z,21.33
2022-08-04T23:48:15.448Z,21.37
2022-08-04T23:50:31.759Z,21.30
2022-08-04T23:53:18.692Z,21.39
2022-08-04T23:56:19.477Z,21.25
2022-08-04T23:59:05.267Z,21.03
